Time;durP1;ratioP1;P1;durP2;ratioP2;P2;SDS_P1;SDS_P2;PMS_P1;PMS_P2;Temp;Humidity;BMP_temperature;BMP_pressure;BME280_temperature;BME280_humidity;BME280_pressure;Samples;Min_cycle;Max_cycle;Signal;HPM_P1;HPM_P2
2023/01/24 00:01:26;;;;;;;15.98;14.27;;;;;;;;;;5053633;28;20399;-91
2023/01/24 00:03:52;;;;;;;16.33;14.63;;;;;;;;;;5076533;28;20376;-90
2023/01/24 00:06:20;;;;;;;16.58;14.88;;;;;;;;;;5059919;28;20470;-93
2023/01/24 00:08:47;;;;;;;17.02;15.23;;;;;;;;;;5058862;28;20379;-90
2023/01/24 00:11:16;;;;;;;16.48;14.77;;;;;;;;;;5076486;28;20802;-91
2023/01/24 00:13:42;;;;;;;16.83;15.13;;;;;;;;;;5075380;28;20380;-90
2023/01/24 00:16:10;;;;;;;17.33;14.93;;;;;;;;;;5076531;28;20376;-90
2023/01/24 00:18:39;;;;;;;17.20;14.52;;;;;;;;;;5056521;28;20725;-90
2023/01/24 00:21:12;;;;;;;15.80;14.20;;;;;;;;;;5076367;28;20404;-90
2023/01/24 00:23:39;;;;;;;15.35;13.75;;;;;;;;;;5076625;28;20477;-90
2023/01/24 00:26:07;;;;;;;15.02;13.52;;;;;;;;;;5057632;28;20376;-91
2023/01/24 00:28:34;;;;;;;15.95;14.35;;;;;;;;;;5057375;28;20718;-90
2023/01/24 00:31:00;;;;;;;14.63;13.23;;;;;;;;;;5074545;28;20741;-89
2023/01/24 00:33:26;;;;;;;14.95;13.40;;;;;;;;;;5058254;28;20395;-89
2023/01/24 00:35:52;;;;;;;15.20;13.60;;;;;;;;;;5076482;28;20875;-91
2023/01/24 00:38:19;;;;;;;15.88;14.23;;;;;;;;;;5071706;28;20490;-91
2023/01/24 00:40:45;;;;;;;15.65;14.15;;;;;;;;;;5075516;28;20411;-89
2023/01/24 00:43:23;;;;;;;15.88;14.18;;;;;;;;;;5075321;28;20880;-90
2023/01/24 00:45:49;;;;;;;16.03;14.43;;;;;;;;;;5058314;28;20461;-89
2023/01/24 00:48:17;;;;;;;16.83;14.82;;;;;;;;;;5075775;28;20455;-90
2023/01/24 00:50:46;;;;;;;17.08;15.27;;;;;;;;;;5075466;28;20372;-88
2023/01/24 00:53:12;;;;;;;17.27;15.05;;;;;;;;;;5077946;28;20384;-90
2023/01/24 00:55:50;;;;;;;16.70;14.98;;;;;;;;;;5076151;28;20376;-90
2023/01/24 00:58:16;;;;;;;17.88;15.32;;;;;;;;;;5074777;28;20753;-89
2023/01/24 01:00:42;;;;;;;17.20;15.40;;;;;;;;;;5058961;28;20737;-89
2023/01/24 01:03:11;;;;;;;17.05;15.05;;;;;;;;;;5078298;28;20379;-89
2023/01/24 01:05:37;;;;;;;16.98;15.18;;;;;;;;;;5060843;28;20956;-90
2023/01/24 01:08:03;;;;;;;17.17;15.00;;;;;;;;;;5078976;28;20384;-89
2023/01/24 01:10:29;;;;;;;19.27;15.70;;;;;;;;;;5079305;28;20384;-88
2023/01/24 01:12:56;;;;;;;17.63;15.73;;;;;;;;;;5078914;28;20379;-89
2023/01/24 01:15:22;;;;;;;18.27;15.55;;;;;;;;;;5077198;28;20379;-90
2023/01/24 01:17:48;;;;;;;19.10;16.45;;;;;;;;;;5075403;28;20372;-89
2023/01/24 01:20:15;;;;;;;17.45;15.65;;;;;;;;;;5075727;28;20446;-90
2023/01/24 01:22:41;;;;;;;21.00;16.33;;;;;;;;;;5075273;28;20486;-89
2023/01/24 01:25:07;;;;;;;20.10;16.50;;;;;;;;;;5075238;28;20384;-91
2023/01/24 01:27:33;;;;;;;20.70;16.92;;;;;;;;;;5077123;28;20376;-91
2023/01/24 01:29:59;;;;;;;19.17;16.52;;;;;;;;;;5078995;28;20381;-91
2023/01/24 01:32:25;;;;;;;20.58;17.20;;;;;;;;;;5054374;28;20875;-91
2023/01/24 01:34:51;;;;;;;20.83;17.25;;;;;;;;;;5074465;28;20395;-89
2023/01/24 01:37:17;;;;;;;19.33;16.50;;;;;;;;;;5074991;28;20380;-89
2023/01/24 01:39:43;;;;;;;19.77;16.33;;;;;;;;;;5056848;28;20541;-91
2023/01/24 01:42:09;;;;;;;19.58;16.55;;;;;;;;;;5073446;28;20971;-89
2023/01/24 01:44:38;;;;;;;21.00;16.80;;;;;;;;;;5058263;28;20412;-89
2023/01/24 01:47:06;;;;;;;19.17;16.92;;;;;;;;;;5078551;28;20464;-90
2023/01/24 01:49:33;;;;;;;19.50;17.08;;;;;;;;;;5085945;28;20777;-89
2023/01/24 01:52:02;;;;;;;19.13;16.42;;;;;;;;;;5052303;28;20476;-91
2023/01/24 01:54:30;;;;;;;21.20;17.08;;;;;;;;;;5054071;28;20469;-90
2023/01/24 01:56:58;;;;;;;21.53;17.10;;;;;;;;;;5052309;28;20381;-90
2023/01/24 01:59:27;;;;;;;20.40;16.85;;;;;;;;;;5054169;28;20381;-90
2023/01/24 02:01:54;;;;;;;21.50;17.75;;;;;;;;;;5071648;28;20952;-88
2023/01/24 02:04:21;;;;;;;21.10;17.35;;;;;;;;;;5074002;28;20451;-90
2023/01/24 02:07:11;;;;;;;21.55;17.45;;;;;;;;;;5073414;28;20467;-90
2023/01/24 02:09:40;;;;;;;21.85;16.92;;;;;;;;;;5074531;28;20471;-90
2023/01/24 02:12:08;;;;;;;20.95;17.77;;;;;;;;;;5056161;28;20372;-89
2023/01/24 02:17:21;;;;;;;25.10;19.48;;;;;;;;;;5074904;28;20382;-90
2023/01/24 02:19:47;;;;;;;22.43;17.60;;;;;;;;;;5073139;28;20429;-89
2023/01/24 02:22:16;;;;;;;21.35;16.77;;;;;;;;;;5072952;28;20933;-90
2023/01/24 02:24:45;;;;;;;26.73;19.33;;;;;;;;;;5070911;28;20746;-91
2023/01/24 02:27:11;;;;;;;29.08;21.15;;;;;;;;;;5054955;28;20410;-90
2023/01/24 02:29:37;;;;;;;28.08;20.48;;;;;;;;;;5070850;28;20387;-89
2023/01/24 02:32:06;;;;;;;38.22;25.85;;;;;;;;;;5074747;28;20408;-89
2023/01/24 02:34:32;;;;;;;20.55;17.13;;;;;;;;;;5073916;28;20390;-90
2023/01/24 02:37:03;;;;;;;28.58;21.08;;;;;;;;;;5073348;28;20384;-90
2023/01/24 02:39:45;;;;;;;30.75;22.65;;;;;;;;;;5074173;28;20557;-89
2023/01/24 02:42:13;;;;;;;24.30;18.70;;;;;;;;;;5073560;28;20399;-89
2023/01/24 02:44:42;;;;;;;23.83;18.50;;;;;;;;;;5073499;28;20418;-89
2023/01/24 02:47:08;;;;;;;20.70;17.05;;;;;;;;;;5075954;28;20409;-90
2023/01/24 02:49:34;;;;;;;22.55;18.77;;;;;;;;;;5073184;28;20460;-89
2023/01/24 02:54:44;;;;;;;19.25;17.20;;;;;;;;;;5073744;28;20451;-90
2023/01/24 02:59:55;;;;;;;19.80;15.88;;;;;;;;;;5068799;28;20421;-90
2023/01/24 03:02:21;;;;;;;17.77;15.82;;;;;;;;;;5081642;28;20413;-90
2023/01/24 03:04:47;;;;;;;17.05;15.13;;;;;;;;;;5099396;28;20370;-91
2023/01/24 03:07:13;;;;;;;18.33;16.17;;;;;;;;;;5087409;28;20414;-90
2023/01/24 03:09:48;;;;;;;19.80;17.07;;;;;;;;;;5088678;28;20416;-89
2023/01/24 03:34:32;;;;;;;19.27;16.67;;;;;;;;;;5091802;28;20481;-89
2023/01/24 03:36:58;;;;;;;19.52;15.75;;;;;;;;;;5085017;28;20369;-90
2023/01/24 03:42:08;;;;;;;18.13;15.73;;;;;;;;;;5062877;28;20415;-89
2023/01/24 03:44:34;;;;;;;20.20;16.65;;;;;;;;;;5073703;28;20368;-89
2023/01/24 03:47:00;;;;;;;18.92;15.82;;;;;;;;;;5074301;28;20372;-89
2023/01/24 03:52:29;;;;;;;18.33;15.55;;;;;;;;;;5080258;28;20437;-90
2023/01/24 03:54:56;;;;;;;20.63;15.95;;;;;;;;;;5077365;28;20414;-89
2023/01/24 03:57:23;;;;;;;17.58;15.38;;;;;;;;;;5086158;28;20785;-89
2023/01/24 03:59:49;;;;;;;18.65;15.75;;;;;;;;;;5067130;28;20421;-90
2023/01/24 04:02:15;;;;;;;19.27;15.65;;;;;;;;;;5058235;28;20465;-91
2023/01/24 04:07:27;;;;;;;18.10;14.95;;;;;;;;;;5076474;28;20371;-89
2023/01/24 04:09:53;;;;;;;16.63;14.55;;;;;;;;;;5075871;28;20375;-89
2023/01/24 04:12:19;;;;;;;17.02;14.50;;;;;;;;;;5058317;28;20938;-89
2023/01/24 04:14:45;;;;;;;16.10;13.95;;;;;;;;;;5076643;28;20405;-91
2023/01/24 04:17:11;;;;;;;15.50;13.90;;;;;;;;;;5090500;28;20389;-89
2023/01/24 04:19:37;;;;;;;15.95;14.07;;;;;;;;;;5054939;28;20396;-90
2023/01/24 04:22:03;;;;;;;15.52;13.55;;;;;;;;;;5064365;28;20396;-89
2023/01/24 04:24:29;;;;;;;18.73;14.40;;;;;;;;;;5075143;28;20376;-90
2023/01/24 04:26:55;;;;;;;15.25;13.65;;;;;;;;;;5073454;28;20396;-90
2023/01/24 04:29:21;;;;;;;15.63;14.02;;;;;;;;;;5055345;28;20387;-91
2023/01/24 04:31:47;;;;;;;17.00;14.33;;;;;;;;;;5074903;28;20437;-90
2023/01/24 04:34:13;;;;;;;14.88;13.30;;;;;;;;;;5057033;28;20388;-90
2023/01/24 04:36:39;;;;;;;16.23;13.75;;;;;;;;;;5073932;28;20388;-89
2023/01/24 04:39:05;;;;;;;15.30;13.75;;;;;;;;;;5074025;28;20490;-89
2023/01/24 04:41:31;;;;;;;14.52;13.02;;;;;;;;;;5074330;28;20852;-90
2023/01/24 04:43:57;;;;;;;15.20;13.60;;;;;;;;;;5056368;28;20871;-89
2023/01/24 04:46:23;;;;;;;14.18;12.57;;;;;;;;;;5053849;28;20930;-92
2023/01/24 04:48:49;;;;;;;14.55;13.05;;;;;;;;;;5036294;28;20389;-89
2023/01/24 04:51:15;;;;;;;14.10;12.73;;;;;;;;;;5059995;28;20383;-91
2023/01/24 04:53:48;;;;;;;14.75;12.93;;;;;;;;;;5072543;28;20413;-91
2023/01/24 04:56:14;;;;;;;13.82;12.43;;;;;;;;;;5058667;28;20389;-88
2023/01/24 04:58:40;;;;;;;15.73;13.50;;;;;;;;;;5038362;28;21006;-90
2023/01/24 05:01:06;;;;;;;15.40;13.80;;;;;;;;;;5043289;28;20409;-90
2023/01/24 05:03:32;;;;;;;16.02;13.52;;;;;;;;;;5060780;28;20415;-89
2023/01/24 05:05:58;;;;;;;61.80;28.83;;;;;;;;;;5063584;28;20382;-90
2023/01/24 05:08:26;;;;;;;18.42;14.45;;;;;;;;;;5055064;28;20374;-90
2023/01/24 05:10:52;;;;;;;17.17;14.05;;;;;;;;;;5060677;28;20376;-90
2023/01/24 05:13:25;;;;;;;22.20;15.48;;;;;;;;;;5061570;28;20507;-90
2023/01/24 05:15:51;;;;;;;20.50;14.50;;;;;;;;;;5036140;28;20393;-88
2023/01/24 05:18:18;;;;;;;17.83;14.43;;;;;;;;;;5052766;28;20389;-90
2023/01/24 05:20:44;;;;;;;61.15;28.45;;;;;;;;;;5056553;28;20770;-90
2023/01/24 05:23:13;;;;;;;16.02;13.10;;;;;;;;;;5067980;28;20392;-89
2023/01/24 05:25:39;;;;;;;50.80;27.05;;;;;;;;;;5035849;28;20378;-90
2023/01/24 05:28:06;;;;;;;17.80;14.00;;;;;;;;;;5059692;28;20397;-90
2023/01/24 05:30:32;;;;;;;21.55;14.90;;;;;;;;;;5056003;28;20376;-88
2023/01/24 05:32:58;;;;;;;32.50;18.70;;;;;;;;;;5073534;28;20395;-90
2023/01/24 05:35:30;;;;;;;12.73;11.32;;;;;;;;;;5054975;28;20461;-91
2023/01/24 05:37:56;;;;;;;124.82;47.10;;;;;;;;;;5058691;28;20424;-89
2023/01/24 05:40:22;;;;;;;21.35;16.02;;;;;;;;;;5035959;28;20467;-89
2023/01/24 05:42:48;;;;;;;94.25;48.00;;;;;;;;;;5067057;28;20403;-90
2023/01/24 05:45:14;;;;;;;16.10;14.35;;;;;;;;;;5055183;28;20404;-90
2023/01/24 05:47:40;;;;;;;15.13;13.52;;;;;;;;;;5073496;28;20387;-91
2023/01/24 05:50:07;;;;;;;15.27;11.95;;;;;;;;;;5073447;28;20372;-89
2023/01/24 05:52:33;;;;;;;13.45;12.15;;;;;;;;;;5073695;28;20386;-90
2023/01/24 05:54:59;;;;;;;12.45;11.25;;;;;;;;;;5056136;28;20495;-92
2023/01/24 05:57:25;;;;;;;51.90;33.43;;;;;;;;;;5072155;28;20764;-90
2023/01/24 05:59:51;;;;;;;13.98;12.52;;;;;;;;;;5055501;28;20387;-91
2023/01/24 06:02:18;;;;;;;11.63;10.53;;;;;;;;;;5043531;28;21035;-92
2023/01/24 06:04:44;;;;;;;11.77;10.65;;;;;;;;;;5060287;28;20370;-90
2023/01/24 06:07:10;;;;;;;11.98;10.80;;;;;;;;;;5060388;28;20435;-92
2023/01/24 06:09:38;;;;;;;12.43;11.13;;;;;;;;;;5068436;28;20424;-90
2023/01/24 06:12:04;;;;;;;12.45;11.25;;;;;;;;;;5077266;28;20380;-89
2023/01/24 06:14:30;;;;;;;12.60;11.40;;;;;;;;;;5065855;28;20428;-91
2023/01/24 06:16:56;;;;;;;12.50;11.30;;;;;;;;;;5066081;28;20388;-91
2023/01/24 06:19:22;;;;;;;12.10;10.98;;;;;;;;;;5070647;28;20379;-90
2023/01/24 06:21:49;;;;;;;12.13;11.00;;;;;;;;;;5055670;28;20459;-89
2023/01/24 06:24:19;;;;;;;11.90;10.80;;;;;;;;;;5060746;28;20423;-90
2023/01/24 06:26:45;;;;;;;12.20;11.00;;;;;;;;;;5084298;28;20895;-89
2023/01/24 06:29:11;;;;;;;12.57;11.27;;;;;;;;;;5069403;28;20498;-89
2023/01/24 06:31:40;;;;;;;12.10;10.85;;;;;;;;;;5078591;28;20382;-90
2023/01/24 06:34:12;;;;;;;12.53;11.23;;;;;;;;;;5072588;28;20391;-91
2023/01/24 06:36:57;;;;;;;11.93;10.77;;;;;;;;;;5059320;28;20387;-90
2023/01/24 06:39:23;;;;;;;11.93;10.82;;;;;;;;;;5072298;28;20420;-90
2023/01/24 06:41:59;;;;;;;11.82;10.73;;;;;;;;;;5068544;28;20424;-92
2023/01/24 06:44:25;;;;;;;11.82;10.73;;;;;;;;;;5054255;28;20421;-89
2023/01/24 06:46:51;;;;;;;11.43;10.30;;;;;;;;;;5053803;28;20388;-89
2023/01/24 06:49:17;;;;;;;11.13;10.13;;;;;;;;;;5046520;28;20379;-91
2023/01/24 06:51:43;;;;;;;11.50;10.43;;;;;;;;;;5037364;28;21068;-90
2023/01/24 06:54:09;;;;;;;12.00;10.88;;;;;;;;;;5034138;28;20399;-92
2023/01/24 06:56:35;;;;;;;11.82;10.63;;;;;;;;;;5036095;28;20744;-90
2023/01/24 06:59:01;;;;;;;12.17;10.97;;;;;;;;;;5050182;28;20429;-90
2023/01/24 07:01:28;;;;;;;11.38;10.25;;;;;;;;;;5048498;28;20488;-91
2023/01/24 07:03:54;;;;;;;12.43;11.23;;;;;;;;;;5054793;28;20392;-89
2023/01/24 07:06:22;;;;;;;11.80;10.63;;;;;;;;;;5052216;28;20385;-90
2023/01/24 07:08:48;;;;;;;12.23;11.10;;;;;;;;;;5054061;28;20414;-90
2023/01/24 07:11:14;;;;;;;11.30;10.30;;;;;;;;;;5050731;28;20410;-89
2023/01/24 07:13:40;;;;;;;12.80;11.60;;;;;;;;;;5041084;28;20753;-91
2023/01/24 07:16:07;;;;;;;12.13;10.93;;;;;;;;;;5052116;28;20464;-90
2023/01/24 07:18:33;;;;;;;12.20;10.90;;;;;;;;;;5052749;28;20388;-89
2023/01/24 07:20:59;;;;;;;11.30;10.30;;;;;;;;;;5048177;28;20420;-91
2023/01/24 07:23:31;;;;;;;12.15;11.05;;;;;;;;;;5039498;28;20393;-90
2023/01/24 07:25:57;;;;;;;11.60;10.60;;;;;;;;;;5052584;28;20388;-90
2023/01/24 07:28:23;;;;;;;12.57;11.40;;;;;;;;;;5056659;28;20377;-93
2023/01/24 07:30:49;;;;;;;11.87;10.77;;;;;;;;;;5061010;28;20940;-90
2023/01/24 07:33:16;;;;;;;11.85;10.75;;;;;;;;;;5063712;28;20383;-91
2023/01/24 07:35:42;;;;;;;11.65;10.52;;;;;;;;;;5058385;28;20388;-89
2023/01/24 07:38:08;;;;;;;12.38;11.15;;;;;;;;;;5063878;28;20407;-89
2023/01/24 07:40:34;;;;;;;12.98;11.73;;;;;;;;;;5089135;28;20748;-92
2023/01/24 07:43:01;;;;;;;12.60;11.30;;;;;;;;;;5064572;28;20414;-93
2023/01/24 07:45:27;;;;;;;12.52;11.32;;;;;;;;;;5066505;28;20820;-91
2023/01/24 07:47:57;;;;;;;12.65;11.45;;;;;;;;;;5061829;28;20383;-94
2023/01/24 07:50:24;;;;;;;13.02;11.73;;;;;;;;;;5094494;28;20416;-92
2023/01/24 07:52:56;;;;;;;12.90;11.63;;;;;;;;;;5077810;28;20386;-92
2023/01/24 07:55:22;;;;;;;12.95;11.65;;;;;;;;;;5065097;28;20391;-91
2023/01/24 07:57:49;;;;;;;13.23;11.82;;;;;;;;;;5076817;28;20383;-89
2023/01/24 08:00:15;;;;;;;13.10;11.68;;;;;;;;;;5075404;28;20722;-89
2023/01/24 08:02:42;;;;;;;12.75;11.35;;;;;;;;;;5077162;28;20462;-90
2023/01/24 08:05:08;;;;;;;14.63;12.90;;;;;;;;;;5075787;28;20371;-88
2023/01/24 08:07:34;;;;;;;13.38;11.98;;;;;;;;;;5078224;28;20372;-89
2023/01/24 08:10:00;;;;;;;13.55;12.20;;;;;;;;;;5078140;28;20384;-89
2023/01/24 08:12:26;;;;;;;16.88;14.98;;;;;;;;;;5075136;28;20384;-91
2023/01/24 08:14:52;;;;;;;14.48;13.02;;;;;;;;;;5065809;28;20451;-91
2023/01/24 08:17:18;;;;;;;13.13;11.82;;;;;;;;;;5059629;28;20398;-89
2023/01/24 08:19:44;;;;;;;13.02;11.73;;;;;;;;;;5076269;28;20380;-90
2023/01/24 08:22:10;;;;;;;12.95;11.75;;;;;;;;;;5077467;28;20438;-87
2023/01/24 08:24:36;;;;;;;12.27;11.18;;;;;;;;;;5077828;28;20383;-89
2023/01/24 08:27:02;;;;;;;12.25;10.95;;;;;;;;;;5059527;28;20865;-90
2023/01/24 08:29:29;;;;;;;11.93;10.73;;;;;;;;;;5071840;28;20425;-90
2023/01/24 08:31:55;;;;;;;12.32;11.20;;;;;;;;;;5069276;28;20376;-88
2023/01/24 08:34:21;;;;;;;11.93;10.75;;;;;;;;;;5072081;28;20380;-89
2023/01/24 08:36:47;;;;;;;11.90;10.70;;;;;;;;;;5057230;28;20469;-89
2023/01/24 08:39:13;;;;;;;12.35;11.13;;;;;;;;;;5056457;28;20411;-90
2023/01/24 08:41:39;;;;;;;12.10;10.98;;;;;;;;;;5080330;28;20409;-89
2023/01/24 08:44:05;;;;;;;12.02;10.82;;;;;;;;;;5070579;28;20413;-88
2023/01/24 08:46:32;;;;;;;11.45;10.27;;;;;;;;;;5054781;28;20882;-88
2023/01/24 08:48:58;;;;;;;11.35;10.23;;;;;;;;;;5053528;28;20395;-85
2023/01/24 08:51:24;;;;;;;11.27;10.03;;;;;;;;;;5077091;28;20394;-85
2023/01/24 08:53:50;;;;;;;11.63;10.52;;;;;;;;;;5073303;28;20390;-85
2023/01/24 08:56:16;;;;;;;11.20;10.10;;;;;;;;;;5088878;28;20374;-85
2023/01/24 08:58:42;;;;;;;11.57;10.38;;;;;;;;;;5060459;28;20368;-85
2023/01/24 09:01:09;;;;;;;11.25;10.13;;;;;;;;;;5065906;28;20396;-84
2023/01/24 09:03:35;;;;;;;11.25;10.15;;;;;;;;;;5073461;28;20371;-84
2023/01/24 09:06:01;;;;;;;16.13;14.43;;;;;;;;;;5073955;28;20411;-85
2023/01/24 09:08:27;;;;;;;17.88;14.10;;;;;;;;;;5073804;28;20387;-85
2023/01/24 09:10:53;;;;;;;11.70;10.60;;;;;;;;;;5074045;28;20543;-85
2023/01/24 09:13:19;;;;;;;12.82;11.52;;;;;;;;;;5073665;28;20414;-85
2023/01/24 09:15:45;;;;;;;11.43;10.30;;;;;;;;;;5073756;28;20375;-85
2023/01/24 09:18:11;;;;;;;11.88;10.68;;;;;;;;;;5073653;28;20380;-84
2023/01/24 09:20:37;;;;;;;11.70;10.60;;;;;;;;;;5073568;28;20857;-86
2023/01/24 09:23:11;;;;;;;11.95;10.73;;;;;;;;;;5055692;28;20491;-85
2023/01/24 09:25:38;;;;;;;11.05;10.00;;;;;;;;;;5073986;28;20511;-85
2023/01/24 09:28:04;;;;;;;10.75;9.75;;;;;;;;;;5055877;28;20432;-85
2023/01/24 09:30:30;;;;;;;11.55;10.35;;;;;;;;;;5055565;28;20510;-85
2023/01/24 09:32:56;;;;;;;10.90;9.90;;;;;;;;;;5055669;28;20376;-85
2023/01/24 09:35:22;;;;;;;10.65;9.55;;;;;;;;;;5055665;28;20398;-85
2023/01/24 09:37:48;;;;;;;10.98;9.98;;;;;;;;;;5055173;28;20388;-85
2023/01/24 09:40:34;;;;;;;10.52;9.52;;;;;;;;;;5073765;28;20384;-85
2023/01/24 09:43:30;;;;;;;11.00;9.90;;;;;;;;;;5047281;28;20988;-85
2023/01/24 09:46:09;;;;;;;10.45;9.55;;;;;;;;;;5068929;28;20437;-85
2023/01/24 09:48:35;;;;;;;10.93;9.93;;;;;;;;;;5042320;28;20436;-84
2023/01/24 09:51:04;;;;;;;10.55;9.48;;;;;;;;;;5073145;28;20398;-85
2023/01/24 09:53:32;;;;;;;10.15;9.15;;;;;;;;;;5072908;28;20440;-86
2023/01/24 09:55:59;;;;;;;10.25;9.20;;;;;;;;;;5066789;28;20382;-85
2023/01/24 09:58:33;;;;;;;10.93;9.90;;;;;;;;;;5078942;28;20380;-85
2023/01/24 10:01:00;;;;;;;10.75;9.65;;;;;;;;;;5073832;28;20440;-85
2023/01/24 10:03:26;;;;;;;10.43;9.43;;;;;;;;;;5073353;28;20448;-85
2023/01/24 10:05:54;;;;;;;10.80;9.80;;;;;;;;;;5067618;28;20384;-85
2023/01/24 10:08:31;;;;;;;10.52;9.52;;;;;;;;;;5087321;28;20371;-85
2023/01/24 10:11:16;;;;;;;10.68;9.57;;;;;;;;;;5090381;28;20420;-84
2023/01/24 10:13:51;;;;;;;11.90;10.77;;;;;;;;;;5082716;28;20425;-85
2023/01/24 10:16:29;;;;;;;12.13;10.57;;;;;;;;;;5071335;28;20438;-86
2023/01/24 10:18:55;;;;;;;11.23;10.13;;;;;;;;;;5075709;28;20443;-85
2023/01/24 10:21:30;;;;;;;10.67;9.67;;;;;;;;;;5056814;28;20411;-85
2023/01/24 10:24:00;;;;;;;10.88;9.88;;;;;;;;;;5073298;28;20456;-86
2023/01/24 10:26:26;;;;;;;10.30;9.30;;;;;;;;;;5073367;28;20416;-86
2023/01/24 10:28:53;;;;;;;11.43;10.32;;;;;;;;;;5072795;28;20380;-85
2023/01/24 10:31:27;;;;;;;11.40;10.20;;;;;;;;;;5071758;28;20388;-86
2023/01/24 10:33:59;;;;;;;11.43;10.30;;;;;;;;;;5073398;28;20444;-85
2023/01/24 10:36:46;;;;;;;11.63;10.18;;;;;;;;;;5072794;28;20544;-85
2023/01/24 10:39:13;;;;;;;10.95;9.85;;;;;;;;;;5073168;28;20475;-84
2023/01/24 10:41:39;;;;;;;10.63;9.52;;;;;;;;;;5078470;28;20401;-85
2023/01/24 10:44:05;;;;;;;10.35;9.32;;;;;;;;;;5069202;28;20376;-85
2023/01/24 10:46:31;;;;;;;10.57;9.48;;;;;;;;;;5054882;28;20387;-86
2023/01/24 10:48:58;;;;;;;13.32;11.95;;;;;;;;;;5072378;28;20382;-85
2023/01/24 10:51:25;;;;;;;12.85;11.65;;;;;;;;;;5077690;28;20464;-86
2023/01/24 10:53:51;;;;;;;14.02;12.52;;;;;;;;;;5078158;28;20385;-85
2023/01/24 10:56:20;;;;;;;14.13;12.48;;;;;;;;;;5053426;28;20388;-86
2023/01/24 10:58:59;;;;;;;14.93;13.38;;;;;;;;;;5054731;28;20917;-86
2023/01/24 11:01:47;;;;;;;79.75;41.47;;;;;;;;;;5067479;28;20415;-85
2023/01/24 11:04:20;;;;;;;30.48;19.92;;;;;;;;;;5073475;28;20379;-85
2023/01/24 11:06:47;;;;;;;22.05;18.92;;;;;;;;;;5072744;28;20902;-85
2023/01/24 11:09:14;;;;;;;13.70;12.30;;;;;;;;;;5073183;28;20455;-84
2023/01/24 11:11:43;;;;;;;13.55;12.20;;;;;;;;;;5073025;28;20444;-84
2023/01/24 11:14:12;;;;;;;13.98;12.50;;;;;;;;;;5072568;28;20380;-85
2023/01/24 11:16:42;;;;;;;13.07;11.77;;;;;;;;;;5073075;28;20474;-86
2023/01/24 11:19:20;;;;;;;13.27;11.65;;;;;;;;;;5072997;28;20380;-86
2023/01/24 11:21:52;;;;;;;13.25;11.95;;;;;;;;;;5055061;28;20411;-85
2023/01/24 11:24:20;;;;;;;15.35;12.27;;;;;;;;;;5073120;28;20445;-85
2023/01/24 11:27:02;;;;;;;15.00;13.37;;;;;;;;;;5072967;28;20372;-85
2023/01/24 11:29:28;;;;;;;15.17;13.33;;;;;;;;;;5073350;28;20436;-85
2023/01/24 11:31:56;;;;;;;16.30;14.27;;;;;;;;;;5072819;28;20383;-84
2023/01/24 11:34:37;;;;;;;16.33;13.60;;;;;;;;;;5072742;28;20433;-85
2023/01/24 11:37:21;;;;;;;17.00;13.85;;;;;;;;;;5072463;28;20388;-86
2023/01/24 11:40:02;;;;;;;14.53;13.03;;;;;;;;;;5054613;28;21075;-85
2023/01/24 11:42:43;;;;;;;16.38;14.18;;;;;;;;;;5072791;28;20450;-85
2023/01/24 11:45:18;;;;;;;14.70;13.07;;;;;;;;;;5058837;28;20458;-86
2023/01/24 11:47:54;;;;;;;16.42;14.25;;;;;;;;;;5069362;28;20412;-84
2023/01/24 11:50:29;;;;;;;16.58;13.23;;;;;;;;;;5056595;28;20391;-85
2023/01/24 11:53:01;;;;;;;15.48;13.73;;;;;;;;;;5068082;28;20428;-85
2023/01/24 11:55:39;;;;;;;14.55;13.02;;;;;;;;;;5069333;28;20388;-84
2023/01/24 11:58:20;;;;;;;13.60;12.20;;;;;;;;;;5068142;28;20443;-85
2023/01/24 12:01:05;;;;;;;13.23;11.85;;;;;;;;;;5068126;28;20474;-84
2023/01/24 12:03:34;;;;;;;13.40;11.65;;;;;;;;;;5068977;28;20436;-83
2023/01/24 12:06:04;;;;;;;13.85;11.80;;;;;;;;;;5069755;28;20431;-83
2023/01/24 12:08:39;;;;;;;13.82;11.80;;;;;;;;;;5067608;28;20428;-83
2023/01/24 12:11:12;;;;;;;12.63;11.32;;;;;;;;;;5057013;28;20438;-83
2023/01/24 12:13:44;;;;;;;12.05;10.80;;;;;;;;;;5074687;28;20384;-84
2023/01/24 12:16:29;;;;;;;13.10;11.75;;;;;;;;;;5074402;28;20821;-83
2023/01/24 12:19:14;;;;;;;12.13;10.85;;;;;;;;;;5060420;28;20491;-84
2023/01/24 12:21:40;;;;;;;13.10;11.00;;;;;;;;;;5051253;28;20492;-84
2023/01/24 12:24:19;;;;;;;12.13;10.80;;;;;;;;;;5074060;28;20383;-83
2023/01/24 12:26:48;;;;;;;12.52;11.23;;;;;;;;;;5061113;28;20381;-83
2023/01/24 12:29:17;;;;;;;12.10;10.70;;;;;;;;;;5038308;28;20393;-83
2023/01/24 12:32:03;;;;;;;12.18;10.88;;;;;;;;;;5042141;28;20381;-84
2023/01/24 12:34:47;;;;;;;12.05;10.50;;;;;;;;;;5056294;28;20386;-83
2023/01/24 12:37:36;;;;;;;12.48;11.00;;;;;;;;;;5065857;28;20944;-83
2023/01/24 12:40:11;;;;;;;13.50;11.05;;;;;;;;;;5054928;28;20516;-83
2023/01/24 12:42:58;;;;;;;26.45;19.48;;;;;;;;;;5068153;28;20407;-84
2023/01/24 12:45:31;;;;;;;90.18;48.60;;;;;;;;;;5073989;28;20384;-84
2023/01/24 12:48:02;;;;;;;15.70;12.88;;;;;;;;;;5072136;28;20365;-83
2023/01/24 12:50:34;;;;;;;11.75;10.65;;;;;;;;;;5064309;28;20436;-83
2023/01/24 12:53:26;;;;;;;17.23;14.73;;;;;;;;;;5054704;28;20437;-83
2023/01/24 12:56:00;;;;;;;11.30;10.20;;;;;;;;;;5006086;28;20484;-83
2023/01/24 12:58:33;;;;;;;14.95;13.38;;;;;;;;;;5071402;28;20758;-83
2023/01/24 13:01:08;;;;;;;13.57;12.18;;;;;;;;;;5061046;28;20513;-83
2023/01/24 13:03:34;;;;;;;12.80;11.57;;;;;;;;;;5056502;28;20942;-83
2023/01/24 13:06:09;;;;;;;12.38;11.10;;;;;;;;;;5054281;28;20373;-83
2023/01/24 13:08:47;;;;;;;12.25;10.85;;;;;;;;;;5054917;28;20372;-83
2023/01/24 13:11:21;;;;;;;12.90;11.27;;;;;;;;;;5053510;28;20422;-83
2023/01/24 13:14:02;;;;;;;12.63;11.30;;;;;;;;;;5054827;28;20438;-83
2023/01/24 13:16:42;;;;;;;13.00;10.55;;;;;;;;;;5063740;28;20442;-84
2023/01/24 13:19:19;;;;;;;11.35;10.25;;;;;;;;;;5056043;28;20438;-83
2023/01/24 13:22:04;;;;;;;12.68;10.85;;;;;;;;;;5071320;28;20855;-83
2023/01/24 13:24:49;;;;;;;11.95;10.75;;;;;;;;;;5072991;28;20439;-83
2023/01/24 13:27:15;;;;;;;11.82;10.63;;;;;;;;;;5055987;28;21021;-83
2023/01/24 13:30:04;;;;;;;17.50;13.93;;;;;;;;;;5065407;28;20461;-84
2023/01/24 13:32:31;;;;;;;12.50;11.30;;;;;;;;;;5054496;28;20434;-84
2023/01/24 13:34:59;;;;;;;13.53;10.80;;;;;;;;;;5081528;28;20458;-83
2023/01/24 13:37:27;;;;;;;11.45;10.25;;;;;;;;;;5084482;28;20451;-83
2023/01/24 13:40:12;;;;;;;13.10;10.93;;;;;;;;;;5088445;28;20445;-84
2023/01/24 13:42:38;;;;;;;11.95;10.60;;;;;;;;;;5091710;28;20435;-83
2023/01/24 13:45:29;;;;;;;12.75;11.45;;;;;;;;;;5083762;28;20782;-84
2023/01/24 13:47:55;;;;;;;12.20;10.85;;;;;;;;;;5076374;28;20845;-83
2023/01/24 13:50:22;;;;;;;12.73;11.15;;;;;;;;;;5074050;28;20380;-83
2023/01/24 13:52:53;;;;;;;14.45;12.13;;;;;;;;;;5073359;28;20379;-84
2023/01/24 13:55:19;;;;;;;16.15;12.93;;;;;;;;;;5073266;28;20391;-83
2023/01/24 13:57:46;;;;;;;14.25;12.65;;;;;;;;;;5073147;28;20384;-83
2023/01/24 14:00:12;;;;;;;13.80;12.13;;;;;;;;;;5064352;28;20388;-83
2023/01/24 14:02:47;;;;;;;14.00;12.60;;;;;;;;;;5072818;28;20407;-83
2023/01/24 14:05:29;;;;;;;20.40;17.98;;;;;;;;;;5072311;28;20906;-84
2023/01/24 14:08:14;;;;;;;14.95;12.27;;;;;;;;;;5073453;28;20372;-84
2023/01/24 14:10:53;;;;;;;14.07;12.53;;;;;;;;;;5072949;28;20380;-84
2023/01/24 14:13:38;;;;;;;14.32;12.57;;;;;;;;;;5072816;28;20468;-83
2023/01/24 14:16:04;;;;;;;14.63;12.60;;;;;;;;;;5043740;28;20388;-85
2023/01/24 14:18:50;;;;;;;22.58;17.25;;;;;;;;;;5076561;28;20873;-85
2023/01/24 14:21:20;;;;;;;14.50;12.73;;;;;;;;;;5069591;28;20536;-84
2023/01/24 14:23:49;;;;;;;17.25;13.88;;;;;;;;;;5076686;28;20857;-83
2023/01/24 14:26:16;;;;;;;14.38;12.55;;;;;;;;;;5077665;28;20372;-84
2023/01/24 14:28:51;;;;;;;14.32;12.20;;;;;;;;;;5077584;28;20384;-84
2023/01/24 14:31:20;;;;;;;13.43;11.82;;;;;;;;;;5050634;28;20465;-85
2023/01/24 14:33:53;;;;;;;13.30;11.88;;;;;;;;;;5065007;28;20431;-85
2023/01/24 14:36:33;;;;;;;12.50;10.88;;;;;;;;;;5077644;28;20514;-84
2023/01/24 14:39:19;;;;;;;13.53;11.70;;;;;;;;;;5077568;28;20486;-84
2023/01/24 14:41:46;;;;;;;13.65;11.13;;;;;;;;;;5077459;28;20403;-83
2023/01/24 14:44:20;;;;;;;12.70;11.40;;;;;;;;;;5073109;28;20407;-83
2023/01/24 14:46:53;;;;;;;12.38;11.07;;;;;;;;;;5077246;28;20426;-83
2023/01/24 14:49:39;;;;;;;12.20;10.98;;;;;;;;;;5077746;28;20419;-84
2023/01/24 14:52:19;;;;;;;12.20;11.00;;;;;;;;;;5047110;28;20409;-84
2023/01/24 14:54:46;;;;;;;11.40;10.23;;;;;;;;;;5095531;28;20907;-83
2023/01/24 14:57:41;;;;;;;12.93;10.63;;;;;;;;;;5054927;28;20430;-83
2023/01/24 15:00:13;;;;;;;11.30;10.13;;;;;;;;;;5043198;28;20443;-83
2023/01/24 15:02:40;;;;;;;12.40;10.38;;;;;;;;;;5070022;28;20542;-83
2023/01/24 15:05:21;;;;;;;11.47;10.27;;;;;;;;;;5042477;28;20384;-83
2023/01/24 15:07:47;;;;;;;11.00;9.90;;;;;;;;;;5072051;28;20408;-83
2023/01/24 15:10:13;;;;;;;11.70;10.50;;;;;;;;;;5058151;28;20380;-83
2023/01/24 15:12:40;;;;;;;10.95;9.85;;;;;;;;;;5054089;28;20387;-83